sensor_id;sensor_type;location;lat;lon;timestamp;P1;durP1;ratioP1;P2;durP2;ratioP2
13832;SDS011;6987;19.472;-99.276;2024-03-25T00:01:55;12.07;;;5.30;;
13832;SDS011;6987;19.472;-99.276;2024-03-25T00:04:22;15.60;;;5.78;;
13832;SDS011;6987;19.472;-99.276;2024-03-25T00:06:51;17.95;;;6.38;;
13832;SDS011;6987;19.472;-99.276;2024-03-25T00:09:19;12.23;;;7.28;;
13832;SDS011;6987;19.472;-99.276;2024-03-25T00:11:48;16.23;;;7.53;;
13832;SDS011;6987;19.472;-99.276;2024-03-25T00:14:21;12.48;;;6.60;;
13832;SDS011;6987;19.472;-99.276;2024-03-25T00:16:50;9.10;;;6.15;;
13832;SDS011;6987;19.472;-99.276;2024-03-25T00:19:18;10.20;;;6.07;;
13832;SDS011;6987;19.472;-99.276;2024-03-25T00:21:47;8.13;;;5.22;;
13832;SDS011;6987;19.472;-99.276;2024-03-25T00:24:14;12.85;;;6.03;;
13832;SDS011;6987;19.472;-99.276;2024-03-25T00:26:43;10.05;;;6.43;;
13832;SDS011;6987;19.472;-99.276;2024-03-25T00:29:11;11.23;;;5.50;;
13832;SDS011;6987;19.472;-99.276;2024-03-25T00:31:41;14.93;;;6.70;;
13832;SDS011;6987;19.472;-99.276;2024-03-25T00:34:09;14.30;;;7.30;;
13832;SDS011;6987;19.472;-99.276;2024-03-25T00:36:38;17.98;;;8.05;;
13832;SDS011;6987;19.472;-99.276;2024-03-25T00:39:06;15.02;;;8.75;;
13832;SDS011;6987;19.472;-99.276;2024-03-25T00:41:36;22.17;;;11.38;;
13832;SDS011;6987;19.472;-99.276;2024-03-25T00:44:03;15.93;;;12.93;;
13832;SDS011;6987;19.472;-99.276;2024-03-25T00:46:33;16.95;;;13.38;;
13832;SDS011;6987;19.472;-99.276;2024-03-25T00:49:02;25.27;;;14.73;;
13832;SDS011;6987;19.472;-99.276;2024-03-25T00:51:31;17.77;;;13.77;;
13832;SDS011;6987;19.472;-99.276;2024-03-25T00:53:58;19.13;;;14.80;;
13832;SDS011;6987;19.472;-99.276;2024-03-25T00:56:28;21.67;;;15.50;;
13832;SDS011;6987;19.472;-99.276;2024-03-25T00:58:55;22.05;;;16.15;;
13832;SDS011;6987;19.472;-99.276;2024-03-25T01:01:28;26.35;;;19.13;;
13832;SDS011;6987;19.472;-99.276;2024-03-25T01:03:55;27.38;;;18.80;;
13832;SDS011;6987;19.472;-99.276;2024-03-25T01:06:26;23.88;;;17.92;;
13832;SDS011;6987;19.472;-99.276;2024-03-25T01:08:53;23.95;;;18.83;;
13832;SDS011;6987;19.472;-99.276;2024-03-25T01:11:22;24.75;;;18.35;;
13832;SDS011;6987;19.472;-99.276;2024-03-25T01:13:50;27.58;;;18.67;;
13832;SDS011;6987;19.472;-99.276;2024-03-25T01:16:19;20.98;;;17.58;;
13832;SDS011;6987;19.472;-99.276;2024-03-25T01:18:46;27.10;;;19.08;;
13832;SDS011;6987;19.472;-99.276;2024-03-25T01:21:15;25.15;;;18.25;;
13832;SDS011;6987;19.472;-99.276;2024-03-25T01:23:45;29.58;;;18.50;;
13832;SDS011;6987;19.472;-99.276;2024-03-25T01:26:14;30.83;;;18.75;;
13832;SDS011;6987;19.472;-99.276;2024-03-25T01:28:42;26.02;;;18.95;;
13832;SDS011;6987;19.472;-99.276;2024-03-25T01:31:11;21.30;;;17.50;;
13832;SDS011;6987;19.472;-99.276;2024-03-25T01:33:39;23.55;;;19.00;;
13832;SDS011;6987;19.472;-99.276;2024-03-25T01:36:09;23.83;;;16.60;;
13832;SDS011;6987;19.472;-99.276;2024-03-25T01:38:42;31.50;;;17.85;;
13832;SDS011;6987;19.472;-99.276;2024-03-25T01:41:12;22.20;;;17.30;;
13832;SDS011;6987;19.472;-99.276;2024-03-25T01:43:41;24.48;;;15.32;;
13832;SDS011;6987;19.472;-99.276;2024-03-25T01:46:10;26.85;;;14.63;;
13832;SDS011;6987;19.472;-99.276;2024-03-25T01:48:38;23.63;;;13.80;;
13832;SDS011;6987;19.472;-99.276;2024-03-25T01:51:06;24.90;;;14.48;;
13832;SDS011;6987;19.472;-99.276;2024-03-25T01:53:34;20.88;;;13.60;;
13832;SDS011;6987;19.472;-99.276;2024-03-25T01:56:03;26.42;;;14.27;;
13832;SDS011;6987;19.472;-99.276;2024-03-25T01:58:33;22.65;;;14.45;;
13832;SDS011;6987;19.472;-99.276;2024-03-25T02:01:03;26.98;;;17.50;;
13832;SDS011;6987;19.472;-99.276;2024-03-25T02:03:31;18.33;;;13.73;;
13832;SDS011;6987;19.472;-99.276;2024-03-25T02:06:02;27.25;;;17.30;;
13832;SDS011;6987;19.472;-99.276;2024-03-25T02:08:31;30.30;;;17.45;;
13832;SDS011;6987;19.472;-99.276;2024-03-25T02:11:00;22.05;;;17.17;;
13832;SDS011;6987;19.472;-99.276;2024-03-25T02:13:28;29.50;;;19.30;;
13832;SDS011;6987;19.472;-99.276;2024-03-25T02:15:59;26.48;;;18.20;;
13832;SDS011;6987;19.472;-99.276;2024-03-25T02:18:27;31.92;;;22.23;;
13832;SDS011;6987;19.472;-99.276;2024-03-25T02:20:56;33.22;;;20.30;;
13832;SDS011;6987;19.472;-99.276;2024-03-25T02:23:24;35.53;;;21.73;;
13832;SDS011;6987;19.472;-99.276;2024-03-25T02:25:54;29.67;;;20.75;;
13832;SDS011;6987;19.472;-99.276;2024-03-25T02:28:22;39.42;;;22.85;;
13832;SDS011;6987;19.472;-99.276;2024-03-25T02:30:51;35.78;;;21.80;;
13832;SDS011;6987;19.472;-99.276;2024-03-25T02:33:18;37.20;;;21.65;;
13832;SDS011;6987;19.472;-99.276;2024-03-25T02:35:47;31.67;;;18.02;;
13832;SDS011;6987;19.472;-99.276;2024-03-25T02:38:15;27.13;;;16.92;;
13832;SDS011;6987;19.472;-99.276;2024-03-25T02:40:44;23.42;;;14.50;;
13832;SDS011;6987;19.472;-99.276;2024-03-25T02:43:14;20.13;;;14.63;;
13832;SDS011;6987;19.472;-99.276;2024-03-25T02:45:45;20.58;;;13.82;;
13832;SDS011;6987;19.472;-99.276;2024-03-25T02:48:12;18.42;;;12.52;;
13832;SDS011;6987;19.472;-99.276;2024-03-25T02:50:42;22.52;;;13.70;;
13832;SDS011;6987;19.472;-99.276;2024-03-25T02:53:09;21.77;;;13.07;;
13832;SDS011;6987;19.472;-99.276;2024-03-25T02:55:38;14.65;;;11.50;;
13832;SDS011;6987;19.472;-99.276;2024-03-25T02:58:06;17.90;;;12.77;;
13832;SDS011;6987;19.472;-99.276;2024-03-25T03:00:36;15.73;;;12.88;;
13832;SDS011;6987;19.472;-99.276;2024-03-25T03:03:04;17.50;;;11.90;;
13832;SDS011;6987;19.472;-99.276;2024-03-25T03:05:33;20.95;;;14.93;;
13832;SDS011;6987;19.472;-99.276;2024-03-25T03:08:01;22.17;;;14.93;;
13832;SDS011;6987;19.472;-99.276;2024-03-25T03:10:30;22.05;;;15.38;;
13832;SDS011;6987;19.472;-99.276;2024-03-25T03:12:57;18.13;;;14.25;;
13832;SDS011;6987;19.472;-99.276;2024-03-25T03:15:26;21.05;;;14.68;;
13832;SDS011;6987;19.472;-99.276;2024-03-25T03:17:55;18.98;;;13.68;;
13832;SDS011;6987;19.472;-99.276;2024-03-25T03:20:26;23.95;;;15.50;;
13832;SDS011;6987;19.472;-99.276;2024-03-25T03:22:54;25.05;;;14.48;;
13832;SDS011;6987;19.472;-99.276;2024-03-25T03:25:23;20.92;;;15.88;;
13832;SDS011;6987;19.472;-99.276;2024-03-25T03:27:51;21.23;;;16.35;;
13832;SDS011;6987;19.472;-99.276;2024-03-25T03:30:20;24.95;;;17.50;;
13832;SDS011;6987;19.472;-99.276;2024-03-25T03:32:49;22.27;;;17.13;;
13832;SDS011;6987;19.472;-99.276;2024-03-25T03:35:21;23.67;;;16.13;;
13832;SDS011;6987;19.472;-99.276;2024-03-25T03:37:50;29.45;;;19.27;;
13832;SDS011;6987;19.472;-99.276;2024-03-25T03:40:18;22.42;;;18.42;;
13832;SDS011;6987;19.472;-99.276;2024-03-25T03:42:47;22.88;;;16.65;;
13832;SDS011;6987;19.472;-99.276;2024-03-25T03:45:15;24.08;;;15.90;;
13832;SDS011;6987;19.472;-99.276;2024-03-25T03:47:43;19.60;;;13.25;;
13832;SDS011;6987;19.472;-99.276;2024-03-25T03:50:11;17.20;;;12.82;;
13832;SDS011;6987;19.472;-99.276;2024-03-25T03:52:46;18.42;;;12.30;;
13832;SDS011;6987;19.472;-99.276;2024-03-25T03:55:14;15.50;;;11.68;;
13832;SDS011;6987;19.472;-99.276;2024-03-25T03:58:00;18.92;;;12.13;;
13832;SDS011;6987;19.472;-99.276;2024-03-25T04:00:36;18.52;;;11.95;;
13832;SDS011;6987;19.472;-99.276;2024-03-25T04:03:05;18.23;;;12.40;;
13832;SDS011;6987;19.472;-99.276;2024-03-25T04:05:35;28.23;;;14.10;;
13832;SDS011;6987;19.472;-99.276;2024-03-25T04:08:06;23.08;;;15.40;;
13832;SDS011;6987;19.472;-99.276;2024-03-25T04:10:34;21.65;;;15.77;;
13832;SDS011;6987;19.472;-99.276;2024-03-25T04:13:03;20.80;;;16.23;;
13832;SDS011;6987;19.472;-99.276;2024-03-25T04:15:32;27.35;;;15.32;;
13832;SDS011;6987;19.472;-99.276;2024-03-25T04:18:02;24.10;;;16.02;;
13832;SDS011;6987;19.472;-99.276;2024-03-25T04:20:32;22.50;;;15.50;;
13832;SDS011;6987;19.472;-99.276;2024-03-25T04:23:06;20.80;;;14.80;;
13832;SDS011;6987;19.472;-99.276;2024-03-25T04:25:33;24.33;;;16.42;;
13832;SDS011;6987;19.472;-99.276;2024-03-25T04:28:04;33.78;;;19.00;;
13832;SDS011;6987;19.472;-99.276;2024-03-25T04:30:32;20.40;;;16.42;;
13832;SDS011;6987;19.472;-99.276;2024-03-25T04:33:01;35.75;;;17.42;;
13832;SDS011;6987;19.472;-99.276;2024-03-25T04:35:28;25.48;;;16.73;;
13832;SDS011;6987;19.472;-99.276;2024-03-25T04:37:57;25.65;;;17.45;;
13832;SDS011;6987;19.472;-99.276;2024-03-25T04:40:26;34.45;;;19.38;;
13832;SDS011;6987;19.472;-99.276;2024-03-25T04:42:53;27.50;;;17.45;;
13832;SDS011;6987;19.472;-99.276;2024-03-25T04:45:20;33.05;;;20.73;;
13832;SDS011;6987;19.472;-99.276;2024-03-25T04:47:48;33.85;;;19.45;;
13832;SDS011;6987;19.472;-99.276;2024-03-25T04:50:15;26.42;;;18.73;;
13832;SDS011;6987;19.472;-99.276;2024-03-25T04:52:42;30.33;;;19.88;;
13832;SDS011;6987;19.472;-99.276;2024-03-25T04:55:09;40.03;;;18.45;;
13832;SDS011;6987;19.472;-99.276;2024-03-25T04:57:38;29.63;;;19.15;;
13832;SDS011;6987;19.472;-99.276;2024-03-25T05:00:06;32.78;;;20.58;;
13832;SDS011;6987;19.472;-99.276;2024-03-25T05:02:33;30.65;;;20.23;;
13832;SDS011;6987;19.472;-99.276;2024-03-25T05:05:00;26.00;;;19.55;;
13832;SDS011;6987;19.472;-99.276;2024-03-25T05:07:27;27.48;;;19.73;;
13832;SDS011;6987;19.472;-99.276;2024-03-25T05:09:55;28.70;;;19.60;;
13832;SDS011;6987;19.472;-99.276;2024-03-25T05:12:22;30.75;;;18.88;;
13832;SDS011;6987;19.472;-99.276;2024-03-25T05:14:51;27.75;;;17.77;;
13832;SDS011;6987;19.472;-99.276;2024-03-25T05:17:19;29.63;;;17.67;;
13832;SDS011;6987;19.472;-99.276;2024-03-25T05:19:46;27.33;;;17.02;;
13832;SDS011;6987;19.472;-99.276;2024-03-25T05:22:13;28.45;;;17.92;;
13832;SDS011;6987;19.472;-99.276;2024-03-25T05:24:40;24.88;;;15.88;;
13832;SDS011;6987;19.472;-99.276;2024-03-25T05:27:07;26.35;;;15.60;;
13832;SDS011;6987;19.472;-99.276;2024-03-25T05:29:35;27.98;;;15.80;;
13832;SDS011;6987;19.472;-99.276;2024-03-25T05:32:04;28.00;;;16.23;;
13832;SDS011;6987;19.472;-99.276;2024-03-25T05:34:31;23.73;;;15.82;;
13832;SDS011;6987;19.472;-99.276;2024-03-25T05:36:59;26.58;;;17.08;;
13832;SDS011;6987;19.472;-99.276;2024-03-25T05:39:26;25.55;;;16.50;;
13832;SDS011;6987;19.472;-99.276;2024-03-25T05:41:53;30.85;;;17.60;;
13832;SDS011;6987;19.472;-99.276;2024-03-25T05:44:21;27.67;;;17.00;;
13832;SDS011;6987;19.472;-99.276;2024-03-25T05:46:48;27.60;;;15.20;;
13832;SDS011;6987;19.472;-99.276;2024-03-25T05:49:17;22.67;;;15.55;;
13832;SDS011;6987;19.472;-99.276;2024-03-25T05:51:44;22.50;;;16.75;;
13832;SDS011;6987;19.472;-99.276;2024-03-25T05:54:11;24.10;;;15.75;;
13832;SDS011;6987;19.472;-99.276;2024-03-25T05:56:39;25.02;;;15.57;;
13832;SDS011;6987;19.472;-99.276;2024-03-25T05:59:06;29.77;;;16.38;;
13832;SDS011;6987;19.472;-99.276;2024-03-25T06:01:33;22.67;;;16.00;;
13832;SDS011;6987;19.472;-99.276;2024-03-25T06:04:00;36.05;;;17.90;;
13832;SDS011;6987;19.472;-99.276;2024-03-25T06:06:29;25.38;;;17.13;;
13832;SDS011;6987;19.472;-99.276;2024-03-25T06:08:56;25.55;;;17.30;;
13832;SDS011;6987;19.472;-99.276;2024-03-25T06:11:24;26.92;;;17.92;;
13832;SDS011;6987;19.472;-99.276;2024-03-25T06:13:51;30.23;;;17.23;;
13832;SDS011;6987;19.472;-99.276;2024-03-25T06:16:18;26.95;;;17.75;;
13832;SDS011;6987;19.472;-99.276;2024-03-25T06:18:46;27.33;;;17.50;;
13832;SDS011;6987;19.472;-99.276;2024-03-25T06:21:14;32.60;;;17.95;;
13832;SDS011;6987;19.472;-99.276;2024-03-25T06:23:43;30.08;;;17.30;;
13832;SDS011;6987;19.472;-99.276;2024-03-25T06:26:10;29.73;;;17.90;;
13832;SDS011;6987;19.472;-99.276;2024-03-25T06:28:38;28.05;;;18.38;;
13832;SDS011;6987;19.472;-99.276;2024-03-25T06:31:05;29.17;;;17.73;;
13832;SDS011;6987;19.472;-99.276;2024-03-25T06:33:53;31.42;;;20.15;;
13832;SDS011;6987;19.472;-99.276;2024-03-25T06:36:38;30.02;;;20.35;;
13832;SDS011;6987;19.472;-99.276;2024-03-25T06:39:09;32.25;;;19.67;;
13832;SDS011;6987;19.472;-99.276;2024-03-25T06:41:37;32.35;;;20.13;;
13832;SDS011;6987;19.472;-99.276;2024-03-25T06:44:04;30.85;;;19.35;;
13832;SDS011;6987;19.472;-99.276;2024-03-25T06:46:31;34.80;;;20.92;;
13832;SDS011;6987;19.472;-99.276;2024-03-25T06:48:58;30.85;;;20.40;;
13832;SDS011;6987;19.472;-99.276;2024-03-25T06:51:26;31.92;;;20.40;;
13832;SDS011;6987;19.472;-99.276;2024-03-25T06:53:53;35.67;;;22.02;;
13832;SDS011;6987;19.472;-99.276;2024-03-25T06:56:22;34.13;;;22.02;;
13832;SDS011;6987;19.472;-99.276;2024-03-25T06:58:49;37.75;;;21.55;;
13832;SDS011;6987;19.472;-99.276;2024-03-25T07:01:16;37.78;;;22.52;;
13832;SDS011;6987;19.472;-99.276;2024-03-25T07:03:43;42.60;;;23.65;;
13832;SDS011;6987;19.472;-99.276;2024-03-25T07:06:10;37.95;;;23.85;;
13832;SDS011;6987;19.472;-99.276;2024-03-25T07:08:38;40.33;;;23.13;;
13832;SDS011;6987;19.472;-99.276;2024-03-25T07:11:05;32.47;;;22.85;;
13832;SDS011;6987;19.472;-99.276;2024-03-25T07:13:34;36.63;;;25.42;;
13832;SDS011;6987;19.472;-99.276;2024-03-25T07:16:02;44.17;;;25.98;;
13832;SDS011;6987;19.472;-99.276;2024-03-25T07:18:29;38.47;;;25.90;;
13832;SDS011;6987;19.472;-99.276;2024-03-25T07:20:56;44.50;;;26.92;;
13832;SDS011;6987;19.472;-99.276;2024-03-25T07:23:23;37.80;;;25.98;;
13832;SDS011;6987;19.472;-99.276;2024-03-25T07:25:50;40.70;;;27.23;;
13832;SDS011;6987;19.472;-99.276;2024-03-25T07:28:17;44.88;;;27.08;;
13832;SDS011;6987;19.472;-99.276;2024-03-25T07:30:47;43.67;;;28.13;;
13832;SDS011;6987;19.472;-99.276;2024-03-25T07:33:16;44.47;;;29.30;;
13832;SDS011;6987;19.472;-99.276;2024-03-25T07:35:44;43.25;;;29.95;;
13832;SDS011;6987;19.472;-99.276;2024-03-25T07:38:12;49.00;;;31.30;;
13832;SDS011;6987;19.472;-99.276;2024-03-25T07:40:39;49.88;;;31.80;;
13832;SDS011;6987;19.472;-99.276;2024-03-25T07:43:07;46.15;;;29.50;;
13832;SDS011;6987;19.472;-99.276;2024-03-25T07:45:34;44.78;;;29.75;;
13832;SDS011;6987;19.472;-99.276;2024-03-25T07:48:03;45.63;;;30.35;;
13832;SDS011;6987;19.472;-99.276;2024-03-25T07:50:31;46.78;;;29.73;;
13832;SDS011;6987;19.472;-99.276;2024-03-25T07:52:58;45.08;;;29.27;;
13832;SDS011;6987;19.472;-99.276;2024-03-25T07:55:25;52.20;;;31.02;;
13832;SDS011;6987;19.472;-99.276;2024-03-25T07:57:52;48.47;;;31.80;;
13832;SDS011;6987;19.472;-99.276;2024-03-25T08:00:19;50.38;;;30.60;;
13832;SDS011;6987;19.472;-99.276;2024-03-25T08:02:47;46.10;;;30.85;;
13832;SDS011;6987;19.472;-99.276;2024-03-25T08:05:16;47.70;;;29.55;;
13832;SDS011;6987;19.472;-99.276;2024-03-25T08:07:43;46.85;;;31.13;;
13832;SDS011;6987;19.472;-99.276;2024-03-25T08:10:10;48.85;;;32.15;;
13832;SDS011;6987;19.472;-99.276;2024-03-25T08:12:37;46.88;;;31.77;;
13832;SDS011;6987;19.472;-99.276;2024-03-25T08:15:05;48.97;;;31.27;;
13832;SDS011;6987;19.472;-99.276;2024-03-25T08:17:32;46.65;;;30.52;;
13832;SDS011;6987;19.472;-99.276;2024-03-25T08:19:59;51.20;;;32.08;;
13832;SDS011;6987;19.472;-99.276;2024-03-25T08:22:28;44.60;;;31.35;;
13832;SDS011;6987;19.472;-99.276;2024-03-25T08:24:55;50.30;;;31.60;;
13832;SDS011;6987;19.472;-99.276;2024-03-25T08:27:23;49.65;;;31.48;;
13832;SDS011;6987;19.472;-99.276;2024-03-25T08:29:50;45.92;;;31.08;;
13832;SDS011;6987;19.472;-99.276;2024-03-25T08:32:17;48.50;;;30.50;;
13832;SDS011;6987;19.472;-99.276;2024-03-25T08:34:44;47.88;;;31.35;;
13832;SDS011;6987;19.472;-99.276;2024-03-25T08:37:11;42.03;;;30.55;;
13832;SDS011;6987;19.472;-99.276;2024-03-25T08:39:40;46.58;;;31.38;;
13832;SDS011;6987;19.472;-99.276;2024-03-25T08:42:07;44.35;;;30.80;;
13832;SDS011;6987;19.472;-99.276;2024-03-25T08:44:34;52.30;;;32.35;;
13832;SDS011;6987;19.472;-99.276;2024-03-25T08:47:02;50.05;;;31.60;;
13832;SDS011;6987;19.472;-99.276;2024-03-25T08:49:29;50.42;;;31.98;;
13832;SDS011;6987;19.472;-99.276;2024-03-25T08:51:56;46.88;;;31.65;;
13832;SDS011;6987;19.472;-99.276;2024-03-25T08:54:23;55.20;;;32.35;;
13832;SDS011;6987;19.472;-99.276;2024-03-25T08:56:52;46.72;;;31.85;;
13832;SDS011;6987;19.472;-99.276;2024-03-25T08:59:19;45.17;;;29.52;;
13832;SDS011;6987;19.472;-99.276;2024-03-25T09:01:46;46.97;;;31.90;;
13832;SDS011;6987;19.472;-99.276;2024-03-25T09:04:14;46.33;;;30.60;;
13832;SDS011;6987;19.472;-99.276;2024-03-25T09:06:41;45.28;;;30.45;;
13832;SDS011;6987;19.472;-99.276;2024-03-25T09:09:08;46.53;;;29.98;;
13832;SDS011;6987;19.472;-99.276;2024-03-25T09:11:55;48.80;;;30.77;;
13832;SDS011;6987;19.472;-99.276;2024-03-25T09:14:22;48.25;;;31.40;;
13832;SDS011;6987;19.472;-99.276;2024-03-25T09:16:50;47.60;;;31.60;;
13832;SDS011;6987;19.472;-99.276;2024-03-25T09:19:17;40.35;;;29.80;;
13832;SDS011;6987;19.472;-99.276;2024-03-25T09:21:44;41.08;;;29.90;;
13832;SDS011;6987;19.472;-99.276;2024-03-25T09:24:11;46.35;;;30.80;;
13832;SDS011;6987;19.472;-99.276;2024-03-25T09:26:38;44.33;;;30.35;;
13832;SDS011;6987;19.472;-99.276;2024-03-25T09:29:07;47.55;;;29.52;;
13832;SDS011;6987;19.472;-99.276;2024-03-25T09:31:34;45.85;;;30.13;;
13832;SDS011;6987;19.472;-99.276;2024-03-25T09:34:02;49.83;;;29.05;;
13832;SDS011;6987;19.472;-99.276;2024-03-25T09:36:29;43.90;;;29.35;;
13832;SDS011;6987;19.472;-99.276;2024-03-25T09:38:56;40.58;;;30.45;;
13832;SDS011;6987;19.472;-99.276;2024-03-25T09:41:23;46.60;;;29.77;;
13832;SDS011;6987;19.472;-99.276;2024-03-25T09:43:56;41.70;;;30.08;;
13832;SDS011;6987;19.472;-99.276;2024-03-25T09:46:25;39.33;;;27.75;;
13832;SDS011;6987;19.472;-99.276;2024-03-25T09:48:52;46.03;;;30.40;;
13832;SDS011;6987;19.472;-99.276;2024-03-25T09:51:20;43.75;;;29.80;;
13832;SDS011;6987;19.472;-99.276;2024-03-25T09:53:47;43.10;;;30.25;;
13832;SDS011;6987;19.472;-99.276;2024-03-25T09:56:14;42.70;;;29.35;;
13832;SDS011;6987;19.472;-99.276;2024-03-25T09:58:42;38.22;;;28.67;;
13832;SDS011;6987;19.472;-99.276;2024-03-25T10:01:10;38.55;;;29.38;;
13832;SDS011;6987;19.472;-99.276;2024-03-25T10:03:39;44.53;;;28.83;;
13832;SDS011;6987;19.472;-99.276;2024-03-25T10:06:06;44.65;;;29.63;;
13832;SDS011;6987;19.472;-99.276;2024-03-25T10:08:34;38.20;;;29.13;;
13832;SDS011;6987;19.472;-99.276;2024-03-25T10:11:01;43.90;;;28.85;;
13832;SDS011;6987;19.472;-99.276;2024-03-25T10:13:28;51.72;;;28.75;;
13832;SDS011;6987;19.472;-99.276;2024-03-25T10:15:58;42.33;;;27.63;;
13832;SDS011;6987;19.472;-99.276;2024-03-25T10:18:25;42.65;;;27.77;;
13832;SDS011;6987;19.472;-99.276;2024-03-25T10:20:54;36.78;;;27.15;;
13832;SDS011;6987;19.472;-99.276;2024-03-25T10:23:21;43.25;;;28.08;;
13832;SDS011;6987;19.472;-99.276;2024-03-25T10:25:51;53.58;;;27.95;;
13832;SDS011;6987;19.472;-99.276;2024-03-25T10:28:18;43.17;;;27.30;;
13832;SDS011;6987;19.472;-99.276;2024-03-25T10:30:45;43.75;;;27.15;;
13832;SDS011;6987;19.472;-99.276;2024-03-25T10:33:13;44.60;;;27.40;;
13832;SDS011;6987;19.472;-99.276;2024-03-25T10:35:40;38.25;;;24.58;;
13832;SDS011;6987;19.472;-99.276;2024-03-25T10:38:09;37.67;;;24.80;;
13832;SDS011;6987;19.472;-99.276;2024-03-25T10:40:36;36.90;;;25.58;;
13832;SDS011;6987;19.472;-99.276;2024-03-25T10:43:04;39.10;;;27.05;;
13832;SDS011;6987;19.472;-99.276;2024-03-25T10:45:33;33.78;;;24.55;;
13832;SDS011;6987;19.472;-99.276;2024-03-25T10:48:02;43.08;;;25.38;;
13832;SDS011;6987;19.472;-99.276;2024-03-25T10:50:30;35.97;;;25.10;;
13832;SDS011;6987;19.472;-99.276;2024-03-25T10:52:57;40.83;;;25.50;;
13832;SDS011;6987;19.472;-99.276;2024-03-25T10:55:27;42.83;;;25.23;;
13832;SDS011;6987;19.472;-99.276;2024-03-25T10:57:55;46.47;;;26.20;;
13832;SDS011;6987;19.472;-99.276;2024-03-25T11:00:22;44.88;;;26.40;;
13832;SDS011;6987;19.472;-99.276;2024-03-25T11:02:51;44.20;;;26.27;;
13832;SDS011;6987;19.472;-99.276;2024-03-25T11:05:18;43.08;;;24.98;;
13832;SDS011;6987;19.472;-99.276;2024-03-25T11:07:46;45.97;;;26.05;;
13832;SDS011;6987;19.472;-99.276;2024-03-25T11:10:13;54.78;;;26.63;;
13832;SDS011;6987;19.472;-99.276;2024-03-25T11:12:42;58.13;;;27.02;;
13832;SDS011;6987;19.472;-99.276;2024-03-25T11:15:09;48.65;;;28.58;;
13832;SDS011;6987;19.472;-99.276;2024-03-25T11:17:36;47.67;;;26.65;;
13832;SDS011;6987;19.472;-99.276;2024-03-25T11:20:09;47.78;;;27.02;;
13832;SDS011;6987;19.472;-99.276;2024-03-25T11:22:47;47.63;;;25.58;;
13832;SDS011;6987;19.472;-99.276;2024-03-25T11:25:15;45.35;;;27.60;;
13832;SDS011;6987;19.472;-99.276;2024-03-25T11:27:45;42.90;;;26.10;;
13832;SDS011;6987;19.472;-99.276;2024-03-25T11:30:12;44.65;;;26.60;;
13832;SDS011;6987;19.472;-99.276;2024-03-25T11:32:43;39.88;;;25.35;;
13832;SDS011;6987;19.472;-99.276;2024-03-25T11:35:10;45.78;;;24.77;;
13832;SDS011;6987;19.472;-99.276;2024-03-25T11:37:41;49.83;;;23.48;;
13832;SDS011;6987;19.472;-99.276;2024-03-25T11:40:09;37.50;;;23.70;;
13832;SDS011;6987;19.472;-99.276;2024-03-25T11:42:38;44.65;;;24.40;;
13832;SDS011;6987;19.472;-99.276;2024-03-25T11:45:11;37.08;;;23.38;;
13832;SDS011;6987;19.472;-99.276;2024-03-25T11:47:42;35.00;;;20.58;;
13832;SDS011;6987;19.472;-99.276;2024-03-25T11:50:09;40.38;;;22.77;;
13832;SDS011;6987;19.472;-99.276;2024-03-25T11:52:37;35.38;;;22.60;;
13832;SDS011;6987;19.472;-99.276;2024-03-25T11:55:04;39.78;;;22.15;;
13832;SDS011;6987;19.472;-99.276;2024-03-25T11:57:31;36.88;;;22.08;;
13832;SDS011;6987;19.472;-99.276;2024-03-25T11:59:59;35.20;;;20.92;;
13832;SDS011;6987;19.472;-99.276;2024-03-25T12:02:28;34.65;;;20.65;;
13832;SDS011;6987;19.472;-99.276;2024-03-25T12:04:55;34.30;;;20.25;;
13832;SDS011;6987;19.472;-99.276;2024-03-25T12:07:23;36.47;;;20.58;;
13832;SDS011;6987;19.472;-99.276;2024-03-25T12:09:50;35.90;;;20.90;;
13832;SDS011;6987;19.472;-99.276;2024-03-25T12:12:35;35.47;;;21.55;;
13832;SDS011;6987;19.472;-99.276;2024-03-25T12:15:03;35.70;;;20.83;;
13832;SDS011;6987;19.472;-99.276;2024-03-25T12:17:32;35.38;;;20.88;;
13832;SDS011;6987;19.472;-99.276;2024-03-25T12:20:02;34.13;;;19.40;;
13832;SDS011;6987;19.472;-99.276;2024-03-25T12:22:30;31.50;;;19.05;;
13832;SDS011;6987;19.472;-99.276;2024-03-25T12:24:57;40.65;;;20.25;;
13832;SDS011;6987;19.472;-99.276;2024-03-25T12:27:25;34.33;;;19.63;;
13832;SDS011;6987;19.472;-99.276;2024-03-25T12:29:58;30.98;;;20.52;;
13832;SDS011;6987;19.472;-99.276;2024-03-25T12:32:37;41.15;;;20.30;;
13832;SDS011;6987;19.472;-99.276;2024-03-25T12:35:08;32.33;;;19.63;;
13832;SDS011;6987;19.472;-99.276;2024-03-25T12:37:36;33.95;;;19.05;;
13832;SDS011;6987;19.472;-99.276;2024-03-25T12:40:04;27.65;;;18.17;;
13832;SDS011;6987;19.472;-99.276;2024-03-25T12:42:32;35.83;;;18.80;;
13832;SDS011;6987;19.472;-99.276;2024-03-25T12:44:59;37.30;;;19.10;;
13832;SDS011;6987;19.472;-99.276;2024-03-25T12:47:26;39.83;;;18.88;;
13832;SDS011;6987;19.472;-99.276;2024-03-25T12:49:56;31.35;;;18.02;;
13832;SDS011;6987;19.472;-99.276;2024-03-25T12:52:23;39.05;;;17.77;;
13832;SDS011;6987;19.472;-99.276;2024-03-25T12:54:50;40.78;;;17.48;;
13832;SDS011;6987;19.472;-99.276;2024-03-25T12:57:18;38.45;;;16.70;;
13832;SDS011;6987;19.472;-99.276;2024-03-25T12:59:45;41.55;;;17.60;;
13832;SDS011;6987;19.472;-99.276;2024-03-25T13:02:12;28.95;;;16.15;;
13832;SDS011;6987;19.472;-99.276;2024-03-25T13:04:40;34.45;;;16.85;;
13832;SDS011;6987;19.472;-99.276;2024-03-25T13:07:09;54.13;;;17.77;;
13832;SDS011;6987;19.472;-99.276;2024-03-25T13:09:36;35.42;;;16.98;;
13832;SDS011;6987;19.472;-99.276;2024-03-25T13:12:04;38.03;;;17.20;;
13832;SDS011;6987;19.472;-99.276;2024-03-25T13:14:31;41.85;;;17.17;;
13832;SDS011;6987;19.472;-99.276;2024-03-25T13:16:58;41.00;;;16.92;;
13832;SDS011;6987;19.472;-99.276;2024-03-25T13:19:25;29.83;;;16.23;;
13832;SDS011;6987;19.472;-99.276;2024-03-25T13:21:52;55.33;;;17.73;;
13832;SDS011;6987;19.472;-99.276;2024-03-25T13:24:21;37.53;;;16.27;;
13832;SDS011;6987;19.472;-99.276;2024-03-25T13:26:48;45.70;;;17.63;;
13832;SDS011;6987;19.472;-99.276;2024-03-25T13:29:16;42.38;;;17.23;;
13832;SDS011;6987;19.472;-99.276;2024-03-25T13:31:43;47.30;;;17.67;;
13832;SDS011;6987;19.472;-99.276;2024-03-25T13:34:11;44.13;;;17.42;;
13832;SDS011;6987;19.472;-99.276;2024-03-25T13:36:38;34.83;;;17.95;;
13832;SDS011;6987;19.472;-99.276;2024-03-25T13:39:05;37.17;;;18.15;;
13832;SDS011;6987;19.472;-99.276;2024-03-25T13:41:34;43.58;;;18.00;;
13832;SDS011;6987;19.472;-99.276;2024-03-25T13:44:01;38.65;;;17.92;;
13832;SDS011;6987;19.472;-99.276;2024-03-25T13:46:28;41.35;;;17.55;;
13832;SDS011;6987;19.472;-99.276;2024-03-25T13:48:56;40.33;;;18.63;;
13832;SDS011;6987;19.472;-99.276;2024-03-25T13:51:23;41.10;;;19.38;;
13832;SDS011;6987;19.472;-99.276;2024-03-25T13:53:50;50.80;;;21.08;;
13832;SDS011;6987;19.472;-99.276;2024-03-25T13:56:17;46.55;;;20.55;;
13832;SDS011;6987;19.472;-99.276;2024-03-25T13:58:46;47.08;;;20.45;;
13832;SDS011;6987;19.472;-99.276;2024-03-25T14:01:14;33.00;;;19.02;;
13832;SDS011;6987;19.472;-99.276;2024-03-25T14:03:41;40.08;;;19.85;;
13832;SDS011;6987;19.472;-99.276;2024-03-25T14:06:08;33.83;;;18.63;;
13832;SDS011;6987;19.472;-99.276;2024-03-25T14:08:36;29.10;;;15.70;;
13832;SDS011;6987;19.472;-99.276;2024-03-25T14:11:04;39.03;;;18.80;;
13832;SDS011;6987;19.472;-99.276;2024-03-25T14:13:32;31.77;;;15.63;;
13832;SDS011;6987;19.472;-99.276;2024-03-25T14:16:01;39.75;;;16.88;;